createdAt,value
2022-12-20T00:01:33.263Z,1.30
2022-12-20T00:04:05.492Z,1.27
2022-12-20T00:06:35.352Z,1.40
2022-12-20T00:09:05.339Z,1.60
2022-12-20T00:11:34.144Z,1.37
2022-12-20T00:14:02.403Z,1.30
2022-12-20T00:16:31.378Z,1.50
2022-12-20T00:19:03.511Z,1.40
2022-12-20T00:21:33.483Z,1.30
2022-12-20T00:24:01.889Z,1.57
2022-12-20T00:26:31.892Z,1.60
2022-12-20T00:29:00.736Z,1.43
2022-12-20T00:31:31.270Z,1.70
2022-12-20T00:34:01.087Z,1.60
2022-12-20T00:36:32.831Z,1.40
2022-12-20T00:39:01.879Z,1.60
2022-12-20T00:41:32.729Z,1.57
2022-12-20T00:44:01.178Z,1.10
2022-12-20T00:46:29.881Z,1.70
2022-12-20T00:48:58.061Z,1.17
2022-12-20T00:51:28.681Z,1.50
2022-12-20T00:53:58.311Z,1.27
2022-12-20T00:56:27.301Z,1.37
2022-12-20T00:59:00.183Z,1.60
2022-12-20T01:01:31.534Z,1.40
2022-12-20T01:04:00.420Z,1.40
2022-12-20T01:06:29.353Z,1.40
2022-12-20T01:08:59.561Z,1.20
2022-12-20T01:11:29.219Z,1.53
2022-12-20T01:13:59.462Z,1.40
2022-12-20T01:16:31.091Z,1.27
2022-12-20T01:18:59.761Z,1.50
2022-12-20T01:21:28.827Z,1.33
2022-12-20T01:23:58.789Z,1.50
2022-12-20T01:26:28.761Z,1.50
2022-12-20T01:28:59.299Z,1.70
2022-12-20T01:31:28.776Z,1.50
2022-12-20T01:33:57.311Z,1.00
2022-12-20T01:36:29.376Z,1.37
2022-12-20T01:39:00.395Z,1.13
2022-12-20T01:41:30.681Z,1.67
2022-12-20T01:44:03.070Z,1.20
2022-12-20T01:46:33.536Z,1.30
2022-12-20T01:49:04.476Z,1.70
2022-12-20T01:51:36.919Z,1.57
2022-12-20T01:54:11.409Z,1.50
2022-12-20T01:56:41.134Z,1.37
2022-12-20T01:59:09.829Z,1.57
2022-12-20T02:01:38.449Z,1.17
2022-12-20T02:04:06.800Z,1.20
2022-12-20T02:06:35.010Z,1.40
2022-12-20T02:09:05.404Z,1.20
2022-12-20T02:12:00.343Z,2.17
2022-12-20T02:14:40.763Z,1.20
2022-12-20T02:17:15.396Z,1.77
2022-12-20T02:20:29.809Z,1.70
2022-12-20T02:23:19.337Z,1.80
2022-12-20T02:26:02.825Z,1.40
2022-12-20T02:28:52.100Z,1.63
2022-12-20T02:31:28.496Z,2.07
2022-12-20T02:33:58.851Z,1.60
2022-12-20T02:36:27.181Z,1.40
2022-12-20T02:38:55.862Z,1.40
2022-12-20T02:41:28.386Z,1.70
2022-12-20T02:44:18.143Z,1.67
2022-12-20T02:46:48.849Z,1.10
2022-12-20T02:49:21.513Z,1.60
2022-12-20T02:51:52.022Z,1.40
2022-12-20T02:54:21.129Z,1.57
2022-12-20T02:56:56.818Z,1.50
2022-12-20T02:59:31.159Z,1.60
2022-12-20T03:02:01.319Z,1.63
2022-12-20T03:04:33.112Z,1.90
2022-12-20T03:07:02.977Z,1.80
2022-12-20T03:09:32.947Z,1.70
2022-12-20T03:12:01.723Z,1.47
2022-12-20T03:14:31.709Z,1.70
2022-12-20T03:17:04.024Z,1.40
2022-12-20T03:19:32.212Z,1.80
2022-12-20T03:22:00.747Z,1.50
2022-12-20T03:24:28.909Z,1.57
2022-12-20T03:26:57.064Z,1.80
2022-12-20T03:29:26.399Z,1.60
2022-12-20T03:31:54.591Z,1.73
2022-12-20T03:34:24.399Z,1.40
2022-12-20T03:36:52.734Z,1.50
2022-12-20T03:39:21.115Z,1.30
2022-12-20T03:41:52.602Z,1.60
2022-12-20T03:44:20.902Z,1.47
2022-12-20T03:46:50.767Z,2.00
2022-12-20T03:49:19.055Z,1.53
2022-12-20T03:51:52.525Z,1.70
2022-12-20T03:54:20.915Z,1.30
2022-12-20T03:57:02.738Z,2.20
2022-12-20T03:59:31.754Z,1.93
2022-12-20T04:02:01.111Z,1.70
2022-12-20T04:04:31.312Z,1.97
2022-12-20T04:07:16.655Z,2.43
2022-12-20T04:10:10.448Z,1.70
2022-12-20T04:12:39.023Z,1.70
2022-12-20T04:15:11.835Z,1.80
2022-12-20T04:17:43.325Z,2.37
2022-12-20T04:20:21.096Z,1.80
2022-12-20T04:22:58.160Z,1.90
2022-12-20T04:25:26.324Z,1.73
2022-12-20T04:27:56.675Z,1.83
2022-12-20T04:30:25.848Z,1.80
2022-12-20T04:32:55.679Z,2.50
2022-12-20T04:35:24.284Z,2.23
2022-12-20T04:37:52.895Z,1.90
2022-12-20T04:40:22.408Z,2.53
2022-12-20T04:42:55.230Z,2.33
2022-12-20T04:45:24.050Z,2.33
2022-12-20T04:47:56.355Z,3.07
2022-12-20T04:50:34.166Z,7.60
2022-12-20T04:53:19.692Z,24.40
2022-12-20T04:55:50.053Z,42.23
2022-12-20T04:58:18.576Z,50.73
2022-12-20T05:00:47.527Z,43.17
2022-12-20T05:03:35.047Z,26.07
2022-12-20T05:06:06.336Z,16.17
2022-12-20T05:08:40.004Z,13.60
2022-12-20T05:11:11.582Z,9.03
2022-12-20T05:13:45.007Z,8.07
2022-12-20T05:16:18.659Z,6.40
2022-12-20T05:18:49.430Z,5.87
2022-12-20T05:21:36.261Z,4.70
2022-12-20T05:24:40.526Z,3.70
2022-12-20T05:27:24.672Z,2.80
2022-12-20T05:29:54.494Z,2.60
2022-12-20T05:32:23.211Z,2.63
2022-12-20T05:34:56.301Z,3.00
2022-12-20T05:37:25.101Z,2.60
2022-12-20T05:39:53.446Z,2.13
2022-12-20T05:42:25.617Z,2.57
2022-12-20T05:44:54.617Z,2.00
2022-12-20T05:47:23.801Z,12.27
2022-12-20T05:50:04.161Z,36.83
2022-12-20T05:52:38.301Z,29.23
2022-12-20T05:55:07.253Z,22.87
2022-12-20T05:57:38.370Z,16.37
2022-12-20T06:00:08.192Z,12.30
2022-12-20T06:02:44.984Z,9.80
2022-12-20T06:05:13.330Z,7.30
2022-12-20T06:07:41.753Z,4.80
2022-12-20T06:10:11.639Z,3.70
2022-12-20T06:12:51.353Z,3.57
2022-12-20T06:15:20.552Z,3.00
2022-12-20T06:17:49.506Z,2.90
2022-12-20T06:20:18.051Z,2.87
2022-12-20T06:22:49.961Z,2.70
2022-12-20T06:25:18.177Z,2.70
2022-12-20T06:27:47.659Z,2.47
2022-12-20T06:30:19.558Z,2.23
2022-12-20T06:33:16.800Z,2.20
2022-12-20T06:35:45.012Z,2.30
2022-12-20T06:38:13.534Z,2.40
2022-12-20T06:40:41.670Z,2.40
2022-12-20T06:43:09.957Z,2.20
2022-12-20T06:45:41.896Z,2.30
2022-12-20T06:48:12.431Z,2.17
2022-12-20T06:50:41.569Z,2.20
2022-12-20T06:53:10.355Z,2.37
2022-12-20T06:55:40.229Z,2.30
2022-12-20T06:58:08.445Z,2.10
2022-12-20T07:00:40.198Z,2.70
2022-12-20T07:03:08.454Z,2.50
2022-12-20T07:05:36.837Z,2.30
2022-12-20T07:08:05.411Z,2.17
2022-12-20T07:10:36.001Z,2.27
2022-12-20T07:13:04.253Z,2.20
2022-12-20T07:15:32.748Z,2.30
2022-12-20T07:18:03.184Z,2.00
2022-12-20T07:20:31.658Z,1.90
2022-12-20T07:23:00.825Z,2.17
2022-12-20T07:25:29.246Z,2.00
2022-12-20T07:27:57.756Z,1.80
2022-12-20T07:30:26.714Z,2.07
2022-12-20T07:32:54.876Z,2.30
2022-12-20T07:35:24.340Z,1.90
2022-12-20T07:37:54.178Z,2.00
2022-12-20T07:40:22.368Z,2.43
2022-12-20T07:42:50.499Z,2.27
2022-12-20T07:45:19.929Z,2.47
2022-12-20T07:47:48.120Z,2.20
2022-12-20T07:50:16.537Z,2.30
2022-12-20T07:52:50.699Z,2.07
2022-12-20T07:55:19.684Z,2.10
2022-12-20T07:57:50.225Z,1.77
2022-12-20T08:00:19.831Z,2.03
2022-12-20T08:02:54.629Z,2.40
2022-12-20T08:05:24.380Z,2.33
2022-12-20T08:07:59.312Z,1.80
2022-12-20T08:10:28.888Z,1.70
2022-12-20T08:12:57.689Z,1.80
2022-12-20T08:15:26.700Z,2.30
2022-12-20T08:17:54.911Z,2.40
2022-12-20T08:20:23.377Z,1.90
2022-12-20T08:22:52.940Z,1.60
2022-12-20T08:25:22.569Z,1.70
2022-12-20T08:27:50.794Z,1.90
2022-12-20T08:30:19.245Z,1.80
2022-12-20T08:32:47.874Z,2.03
2022-12-20T08:35:16.105Z,1.70
2022-12-20T08:37:44.269Z,1.90
2022-12-20T08:40:14.795Z,2.00
2022-12-20T08:42:42.994Z,2.13
2022-12-20T08:45:12.466Z,2.00
2022-12-20T08:47:40.681Z,2.00
2022-12-20T08:50:09.745Z,2.10
2022-12-20T08:52:37.932Z,2.80
2022-12-20T08:55:07.140Z,2.27
2022-12-20T08:57:36.690Z,2.10
2022-12-20T09:00:06.268Z,2.10
2022-12-20T09:02:38.110Z,1.90
2022-12-20T09:05:07.283Z,2.23
2022-12-20T09:07:35.572Z,15.50
2022-12-20T09:10:03.928Z,25.70
2022-12-20T09:12:32.115Z,21.60
2022-12-20T09:15:01.654Z,16.80
2022-12-20T09:17:30.022Z,11.90
2022-12-20T09:19:58.219Z,10.90
2022-12-20T09:22:26.708Z,8.23
2022-12-20T09:24:55.358Z,6.13
2022-12-20T09:27:23.640Z,5.90
2022-12-20T09:29:51.890Z,5.00
2022-12-20T09:32:21.468Z,5.17
2022-12-20T09:34:49.836Z,4.70
2022-12-20T09:37:18.165Z,4.00
2022-12-20T09:39:46.349Z,3.77
2022-12-20T09:42:16.317Z,3.43
2022-12-20T09:44:44.939Z,3.57
2022-12-20T09:47:19.336Z,3.10
2022-12-20T09:49:52.880Z,2.57
2022-12-20T09:52:36.828Z,2.97
2022-12-20T09:55:16.214Z,2.50
2022-12-20T09:57:56.511Z,2.87
2022-12-20T10:00:24.906Z,2.30
2022-12-20T10:03:02.193Z,2.40
2022-12-20T10:05:44.929Z,22.70
2022-12-20T10:08:24.036Z,24.60
2022-12-20T10:10:57.304Z,18.07
2022-12-20T10:13:46.610Z,12.80
2022-12-20T10:16:28.792Z,10.43
2022-12-20T10:19:09.653Z,6.97
2022-12-20T10:21:48.962Z,5.80
2022-12-20T10:24:20.599Z,4.60
2022-12-20T10:26:51.648Z,3.90
2022-12-20T10:29:21.222Z,3.37
2022-12-20T10:31:52.292Z,2.87
2022-12-20T10:34:20.460Z,3.00
2022-12-20T10:37:02.827Z,2.60
2022-12-20T10:39:42.473Z,2.30
2022-12-20T10:42:26.799Z,2.30
2022-12-20T10:44:56.124Z,2.50
2022-12-20T10:47:36.632Z,1.70
2022-12-20T10:50:16.985Z,2.20
2022-12-20T10:52:48.212Z,2.53
2022-12-20T10:55:36.453Z,21.07
2022-12-20T10:58:06.820Z,33.37
2022-12-20T11:00:35.522Z,22.43
2022-12-20T11:03:12.944Z,14.07
2022-12-20T11:05:41.546Z,10.80
2022-12-20T11:11:17.619Z,6.23
2022-12-20T11:13:46.932Z,4.57
2022-12-20T11:16:34.498Z,4.33
2022-12-20T11:19:56.899Z,2.90
2022-12-20T11:22:35.830Z,3.20
2022-12-20T11:25:21.072Z,3.00
2022-12-20T11:28:01.524Z,2.40
2022-12-20T11:30:39.112Z,2.53
2022-12-20T11:33:19.997Z,2.03
2022-12-20T11:35:54.264Z,2.70
2022-12-20T11:38:37.646Z,2.67
2022-12-20T11:41:18.856Z,2.43
2022-12-20T11:47:23.141Z,2.17
2022-12-20T11:50:16.141Z,2.57
2022-12-20T11:52:49.502Z,2.50
2022-12-20T11:55:22.710Z,2.40
2022-12-20T12:00:54.862Z,10.63
2022-12-20T12:03:29.050Z,27.00
2022-12-20T12:06:02.327Z,23.57
2022-12-20T12:08:41.249Z,20.27
2022-12-20T12:11:55.683Z,16.47
2022-12-20T12:14:07.010Z,13.23
2022-12-20T12:16:38.443Z,10.40
2022-12-20T12:19:11.542Z,8.50
2022-12-20T12:21:45.524Z,6.13
2022-12-20T12:24:22.978Z,3.80
2022-12-20T12:26:51.696Z,2.53
2022-12-20T12:29:22.343Z,2.30
2022-12-20T12:31:56.199Z,1.90
2022-12-20T12:34:40.111Z,1.37
2022-12-20T12:37:38.617Z,1.20
2022-12-20T12:40:58.612Z,1.80
2022-12-20T12:43:47.736Z,1.67
2022-12-20T12:46:20.446Z,1.57
2022-12-20T12:48:55.460Z,1.37
2022-12-20T12:51:28.952Z,2.00
2022-12-20T12:54:13.443Z,1.80
2022-12-20T12:56:46.651Z,2.00
2022-12-20T12:59:24.246Z,1.83
2022-12-20T13:01:55.953Z,1.77
2022-12-20T13:04:30.019Z,2.00
2022-12-20T13:07:04.357Z,1.60
2022-12-20T13:09:50.487Z,1.87
2022-12-20T13:12:58.902Z,2.67
2022-12-20T13:16:19.227Z,1.97
2022-12-20T13:19:16.753Z,2.20
2022-12-20T13:21:46.668Z,1.90
2022-12-20T13:24:57.027Z,2.40
2022-12-20T13:27:31.922Z,2.03
2022-12-20T13:30:33.525Z,1.70
2022-12-20T13:33:39.120Z,2.10
2022-12-20T13:36:37.240Z,1.53
2022-12-20T13:39:36.883Z,1.80
2022-12-20T13:42:18.896Z,2.00
2022-12-20T13:44:48.618Z,2.33
2022-12-20T13:47:38.717Z,1.53
2022-12-20T13:50:40.788Z,1.80
2022-12-20T13:53:18.991Z,1.40
2022-12-20T13:55:48.832Z,1.90
2022-12-20T13:58:19.675Z,1.67
2022-12-20T14:00:49.161Z,1.90
2022-12-20T14:03:23.472Z,1.90
2022-12-20T14:05:58.152Z,1.67
2022-12-20T14:08:31.147Z,1.63
2022-12-20T14:11:10.793Z,2.10
2022-12-20T14:13:39.053Z,1.80
2022-12-20T14:16:15.771Z,1.63
2022-12-20T14:18:49.680Z,1.80
2022-12-20T14:21:18.937Z,2.40
2022-12-20T14:23:51.322Z,1.80
2022-12-20T14:26:23.565Z,1.73
2022-12-20T14:28:53.279Z,1.97
2022-12-20T14:31:27.244Z,1.63
2022-12-20T14:34:04.750Z,1.67
2022-12-20T14:36:34.478Z,1.60
2022-12-20T14:39:24.464Z,2.00
2022-12-20T14:41:57.554Z,1.80
2022-12-20T14:44:27.218Z,1.83
2022-12-20T14:46:57.258Z,1.80
2022-12-20T14:49:30.136Z,2.50
2022-12-20T14:52:14.431Z,1.80
2022-12-20T14:57:45.606Z,1.77
2022-12-20T15:00:21.237Z,2.00
2022-12-20T15:02:53.809Z,18.00
2022-12-20T15:05:53.330Z,32.47
2022-12-20T15:08:24.171Z,19.87
2022-12-20T15:10:59.944Z,13.43
2022-12-20T15:13:34.047Z,10.00
2022-12-20T15:16:04.605Z,7.20
2022-12-20T15:18:33.656Z,6.70
2022-12-20T15:21:05.934Z,3.87
2022-12-20T15:23:34.787Z,4.90
2022-12-20T15:26:04.489Z,3.10
2022-12-20T15:28:33.079Z,3.13
2022-12-20T15:31:01.383Z,2.90
2022-12-20T15:33:33.452Z,3.40
2022-12-20T15:36:01.736Z,7.00
2022-12-20T15:38:54.668Z,8.27
2022-12-20T15:41:23.323Z,11.60
2022-12-20T15:43:54.893Z,19.90
2022-12-20T15:46:23.351Z,21.77
2022-12-20T15:48:51.695Z,21.30
2022-12-20T15:51:26.197Z,17.33
2022-12-20T15:53:54.588Z,14.17
2022-12-20T15:56:25.919Z,10.40
2022-12-20T15:58:54.127Z,8.20
2022-12-20T16:01:26.537Z,7.93
2022-12-20T16:03:54.956Z,5.53
2022-12-20T16:06:24.094Z,5.20
2022-12-20T16:08:52.600Z,4.33
2022-12-20T16:11:22.803Z,3.30
2022-12-20T16:13:52.983Z,3.70
2022-12-20T16:16:23.107Z,4.03
2022-12-20T16:18:51.718Z,3.00
2022-12-20T16:21:22.414Z,3.53
2022-12-20T16:23:51.774Z,3.03
2022-12-20T16:26:21.641Z,2.77
2022-12-20T16:28:51.245Z,2.73
2022-12-20T16:31:25.523Z,15.07
2022-12-20T16:33:54.938Z,31.37
2022-12-20T16:36:23.910Z,26.70
2022-12-20T16:38:53.966Z,19.70
2022-12-20T16:41:25.434Z,15.40
2022-12-20T16:43:55.831Z,11.17
2022-12-20T16:46:28.583Z,7.93
2022-12-20T16:48:57.985Z,6.60
2022-12-20T16:51:28.645Z,5.93
2022-12-20T16:56:48.328Z,6.70
2022-12-20T16:59:20.089Z,6.57
2022-12-20T17:01:54.007Z,7.13
2022-12-20T17:04:26.721Z,6.07
2022-12-20T17:06:55.016Z,5.77
2022-12-20T17:12:16.177Z,4.90
2022-12-20T17:14:47.427Z,4.37
2022-12-20T17:17:17.699Z,4.33
2022-12-20T17:19:46.090Z,3.77
2022-12-20T17:25:01.439Z,3.80
2022-12-20T17:27:29.738Z,3.40
2022-12-20T17:29:57.954Z,3.53
2022-12-20T17:32:27.573Z,3.90
2022-12-20T17:34:55.787Z,4.27
2022-12-20T17:37:25.180Z,3.70
2022-12-20T17:39:53.631Z,4.13
2022-12-20T17:42:28.756Z,3.77
2022-12-20T17:44:59.093Z,3.37
2022-12-20T17:47:28.712Z,3.10
2022-12-20T17:49:58.045Z,2.97
2022-12-20T17:52:26.610Z,3.03
2022-12-20T17:54:54.788Z,3.07
2022-12-20T17:57:23.288Z,3.70
2022-12-20T17:59:51.536Z,3.10
2022-12-20T18:02:22.453Z,2.70
2022-12-20T18:04:52.887Z,3.00
2022-12-20T18:07:21.273Z,2.90
2022-12-20T18:09:50.121Z,2.70
2022-12-20T18:12:18.564Z,2.60
2022-12-20T18:14:49.617Z,2.73
2022-12-20T18:17:17.905Z,2.83
2022-12-20T18:19:46.481Z,12.77
2022-12-20T18:22:16.393Z,50.83
2022-12-20T18:24:44.832Z,34.40
2022-12-20T18:27:13.755Z,25.07
2022-12-20T18:29:42.047Z,16.43
2022-12-20T18:32:10.536Z,13.00
2022-12-20T18:34:39.213Z,8.00
2022-12-20T18:37:07.576Z,6.73
2022-12-20T18:39:37.494Z,5.73
2022-12-20T18:42:06.120Z,4.73
2022-12-20T18:44:36.235Z,3.60
2022-12-20T18:47:04.798Z,3.67
2022-12-20T18:49:33.177Z,3.70
2022-12-20T18:52:01.569Z,4.30
2022-12-20T18:54:30.432Z,4.97
2022-12-20T18:57:00.089Z,5.43
2022-12-20T18:59:28.807Z,5.40
2022-12-20T19:01:57.357Z,5.57
2022-12-20T19:04:25.887Z,4.83
2022-12-20T19:06:54.653Z,4.10
2022-12-20T19:09:23.619Z,3.77
2022-12-20T19:11:57.008Z,4.37
2022-12-20T19:14:27.309Z,4.30
2022-12-20T19:16:55.641Z,3.83
2022-12-20T19:19:24.257Z,4.63
2022-12-20T19:21:52.532Z,4.20
2022-12-20T19:24:21.317Z,4.57
2022-12-20T19:26:49.642Z,4.83
2022-12-20T19:29:18.201Z,4.93
2022-12-20T19:31:48.010Z,4.67
2022-12-20T19:34:16.432Z,4.73
2022-12-20T19:36:46.289Z,4.77
2022-12-20T19:39:16.918Z,5.27
2022-12-20T19:42:06.834Z,5.10
2022-12-20T19:44:33.907Z,4.93
2022-12-20T19:47:06.617Z,4.97
2022-12-20T19:49:36.618Z,4.80
2022-12-20T19:52:05.693Z,5.27
2022-12-20T19:54:34.040Z,4.80
2022-12-20T19:57:02.241Z,5.33
2022-12-20T19:59:31.335Z,6.27
2022-12-20T20:01:59.719Z,5.70
2022-12-20T20:04:30.139Z,5.40
2022-12-20T20:06:58.357Z,5.40
2022-12-20T20:09:26.531Z,4.57
2022-12-20T20:11:54.686Z,5.53
2022-12-20T20:14:23.609Z,5.07
2022-12-20T20:16:51.949Z,4.93
2022-12-20T20:19:20.475Z,5.83
2022-12-20T20:21:50.457Z,5.00
2022-12-20T20:24:18.851Z,5.20
2022-12-20T20:26:50.304Z,4.83
2022-12-20T20:29:18.585Z,4.83
2022-12-20T20:31:46.940Z,4.97
2022-12-20T20:34:15.166Z,5.30
2022-12-20T20:36:43.529Z,4.83
2022-12-20T20:39:13.141Z,5.50
2022-12-20T20:41:42.283Z,6.63
2022-12-20T20:44:12.140Z,4.70
2022-12-20T20:46:40.425Z,6.20
2022-12-20T20:49:08.733Z,9.23
2022-12-20T20:51:36.950Z,17.90
2022-12-20T20:54:07.458Z,17.53
2022-12-20T20:56:39.609Z,13.10
2022-12-20T20:59:17.192Z,10.83
2022-12-20T21:01:47.816Z,8.80
2022-12-20T21:04:17.046Z,8.37
2022-12-20T21:06:46.617Z,5.43
2022-12-20T21:09:17.457Z,5.80
2022-12-20T21:11:51.951Z,5.23
2022-12-20T21:14:51.717Z,4.63
2022-12-20T21:17:16.883Z,4.13
2022-12-20T21:19:46.903Z,3.80
2022-12-20T21:22:18.180Z,3.40
2022-12-20T21:24:57.479Z,3.70
2022-12-20T21:27:28.458Z,2.77
2022-12-20T21:29:57.784Z,3.10
2022-12-20T21:32:29.273Z,2.93
2022-12-20T21:34:59.401Z,2.53
2022-12-20T21:37:30.195Z,2.13
2022-12-20T21:39:58.364Z,2.47
2022-12-20T21:42:27.964Z,2.93
2022-12-20T21:44:56.171Z,2.40
2022-12-20T21:47:25.369Z,2.70
2022-12-20T21:49:53.574Z,2.40
2022-12-20T21:52:22.110Z,2.40
2022-12-20T21:54:50.272Z,2.60
2022-12-20T21:57:18.422Z,2.37
2022-12-20T21:59:48.010Z,2.73
2022-12-20T22:02:16.320Z,2.53
2022-12-20T22:04:44.674Z,2.40
2022-12-20T22:07:12.917Z,3.00
2022-12-20T22:09:41.133Z,2.70
2022-12-20T22:12:09.424Z,2.73
2022-12-20T22:14:37.582Z,2.70
2022-12-20T22:17:07.124Z,2.70
2022-12-20T22:19:36.237Z,2.70
2022-12-20T22:22:04.503Z,2.60
2022-12-20T22:24:32.816Z,3.10
2022-12-20T22:27:04.882Z,2.53
2022-12-20T22:29:35.928Z,2.60
2022-12-20T22:32:04.151Z,2.80
2022-12-20T22:34:33.838Z,2.47
2022-12-20T22:37:02.071Z,2.10
2022-12-20T22:39:30.274Z,3.00
2022-12-20T22:41:58.471Z,3.13
2022-12-20T22:44:26.617Z,2.60
2022-12-20T22:46:54.695Z,2.87
2022-12-20T22:49:23.401Z,2.70
2022-12-20T22:52:06.211Z,2.33
2022-12-20T22:54:36.098Z,2.60
2022-12-20T22:57:04.626Z,2.77
2022-12-20T22:59:34.610Z,2.47
2022-12-20T23:02:02.933Z,2.77
2022-12-20T23:04:31.200Z,2.97
2022-12-20T23:07:00.710Z,2.67
2022-12-20T23:09:29.152Z,3.00
2022-12-20T23:12:14.742Z,2.33
2022-12-20T23:15:03.889Z,3.10
2022-12-20T23:17:33.596Z,3.13
2022-12-20T23:20:19.521Z,2.73
2022-12-20T23:22:49.023Z,2.20
2022-12-20T23:25:19.364Z,2.90
2022-12-20T23:27:49.680Z,2.73
2022-12-20T23:30:20.802Z,3.17
2022-12-20T23:32:49.144Z,2.97
2022-12-20T23:35:19.167Z,3.00
2022-12-20T23:37:49.472Z,2.90
2022-12-20T23:40:18.833Z,2.70
2022-12-20T23:42:47.070Z,3.47
2022-12-20T23:45:15.402Z,3.50
2022-12-20T23:47:43.611Z,3.20
2022-12-20T23:50:12.277Z,2.97
2022-12-20T23:52:40.482Z,3.20
2022-12-20T23:55:11.200Z,3.40
2022-12-20T23:57:39.912Z,3.63
